Tropical Cyclones
[Index]
Main Index Home Page Stock Weather Photos Extreme Storms Discussion Storm News and Storm Chasing Reports Tropical Cyclones / Hurricanes / Typhoons Weather Data and Links Wild Fires / Bushfires Weather Observation Techniques Weather Picture Catalogue Tornado Pictures and Reports Stock Video Footage and DVDs for sale
Season 2016-2017 Tropical Cyclone 201708 Track Map
Season 2016-2017 Summaries (Operational Data): [AU] [SIO] [SPAC] [SH]
<<- Previous TC | 2016-2017 Season | Next TC ->>

click for intensity scale information  Lat/long Grid: Show Hide

 Date Labels: Show Hide

Operational Tropical Cyclone Data : JTWC Advisories

Name: 201708
Number: 1708

16 Feb 2017 18:00 UTC to 26 Feb 2017 18:00 UTC

    date/time    lat    long     hPa   cat  kts
2017-02-16 18   20.0   170.2    1004                     
2017-02-17 06   20.5   170.2    1005                     
2017-02-17 18   20.5   173.5    1000                     
2017-02-18 00   19.6   173.3    1004                     
2017-02-18 06   17.6   173.4    1000                     
2017-02-18 12   16.7   173.7    1000                     
2017-02-18 18   16.3   174.1    1000                     
2017-02-19 00   15.7   173.7    1000                     
2017-02-19 06   16.5   173.0    1000                     
2017-02-19 12   15.1   172.2    1000                     
2017-02-19 18   14.8   171.2    1000                     
2017-02-20 00   15.0   173.0    1001                     
2017-02-20 06   15.9   174.6    1005         15          
2017-02-20 12   16.1   176.0    1005         15          
2017-02-20 18   16.4   177.2    1007         20          
2017-02-21 00   16.7   178.4    1003         25          
2017-02-21 06   17.7   180.0    1002         25          
2017-02-21 12   18.8   178.0W   1000         25          
2017-02-21 18   19.9   174.7W   1002         30          
2017-02-22 00   21.4   171.5W    996    1    40          
2017-02-22 06   22.6   169.7W    995    1    40          
2017-02-22 12   24.7   166.9W    996    1    35          
2017-02-22 18   26.6   163.7W    995    1    35          
2017-02-23 00   28.4   161.8W    997                     
2017-02-23 06   29.4   159.8W                            
2017-02-23 12   30.6   158.4W                            
2017-02-23 18   32.3   157.3W                            
2017-02-24 00   33.6   154.7W    993                     
2017-02-24 06   35.1   152.0W                            
2017-02-24 12   36.9   149.1W                            
2017-02-24 18   38.0   146.7W                            
2017-02-25 00   39.7   143.6W    980                     
2017-02-25 06   40.4   140.0W                            
2017-02-25 12   42.5   135.6W                            
2017-02-25 18   42.9   131.5W                            
2017-02-26 00   44.3   126.9W    977                     
2017-02-26 06   45.1   122.3W                            
2017-02-26 12   45.3   117.7W                            
2017-02-26 18   46.3   112.9W                            
Winds are 10-min average.

Tropical cyclone tracks developed by Michael Bath using operational warnings and advisories and Google Maps.


[Australian Severe Weather index] [Copyright Notice] [Email Contacts] [Search This Site] [Privacy Policy]
Document: tropical_cyclone_201708.htm Updated: 4 July 2017